createdAt,value
2022-10-08T00:01:51.428Z,98448.28
2022-10-08T00:06:53.291Z,98445.94
2022-10-08T00:11:55.151Z,98448.09
2022-10-08T00:16:56.992Z,98442.88
2022-10-08T00:21:58.893Z,98439.63
2022-10-08T00:27:00.775Z,98434.59
2022-10-08T00:32:02.700Z,98434.50
2022-10-08T00:37:04.582Z,98429.38
2022-10-08T00:42:06.522Z,98421.44
2022-10-08T00:48:00.888Z,98420.13
2022-10-08T00:53:07.862Z,98409.75
2022-10-08T00:58:20.663Z,98400.19
2022-10-08T01:03:22.594Z,98400.44
2022-10-08T01:08:34.917Z,98392.03
2022-10-08T01:14:23.242Z,98388.84
2022-10-08T01:20:04.967Z,98395.75
2022-10-08T01:25:48.242Z,98389.16
2022-10-08T01:31:12.530Z,98379.16
2022-10-08T01:36:18.010Z,98372.91
2022-10-08T01:41:24.257Z,98360.47
2022-10-08T01:46:29.371Z,98361.09
2022-10-08T01:51:48.066Z,98366.94
2022-10-08T01:56:52.049Z,98356.28
2022-10-08T02:01:59.590Z,98353.50
2022-10-08T02:07:07.494Z,98351.69
2022-10-08T02:12:09.849Z,98338.22
2022-10-08T02:17:36.566Z,98336.63
2022-10-08T02:22:47.826Z,98331.56
2022-10-08T02:28:01.856Z,98331.19
2022-10-08T02:33:15.776Z,98327.41
2022-10-08T02:38:27.337Z,98320.16
2022-10-08T02:43:34.212Z,98324.00
2022-10-08T02:48:37.082Z,98322.63
2022-10-08T02:53:40.667Z,98322.44
2022-10-08T02:58:43.917Z,98317.81
2022-10-08T03:03:53.715Z,98328.72
2022-10-08T03:08:59.613Z,98328.53
2022-10-08T03:14:09.238Z,98324.72
2022-10-08T03:19:13.666Z,98329.13
2022-10-08T03:24:16.016Z,98338.41
2022-10-08T03:29:17.855Z,98333.19
2022-10-08T03:34:19.924Z,98319.28
2022-10-08T03:39:21.714Z,98324.72
2022-10-08T03:44:23.514Z,98332.38
2022-10-08T03:49:25.460Z,98331.19
2022-10-08T03:54:27.252Z,98331.19
2022-10-08T03:59:29.237Z,98329.19
2022-10-08T04:04:31.243Z,98329.19
2022-10-08T04:09:33.107Z,98325.78
2022-10-08T04:14:34.903Z,98330.19
2022-10-08T04:19:36.694Z,98324.31
2022-10-08T04:24:38.501Z,98320.75
2022-10-08T04:29:40.478Z,98325.97
2022-10-08T04:34:42.284Z,98326.78
2022-10-08T04:39:44.093Z,98324.16
2022-10-08T04:44:45.886Z,98323.97
2022-10-08T04:49:48.292Z,98324.97
2022-10-08T04:54:50.222Z,98334.63
2022-10-08T05:00:13.613Z,98331.19
2022-10-08T05:05:15.102Z,98336.44
2022-10-08T05:10:17.023Z,98332.19
2022-10-08T05:15:18.816Z,98341.03
2022-10-08T05:20:20.881Z,98337.59
2022-10-08T05:25:22.712Z,98352.47
2022-10-08T05:30:24.540Z,98342.22
2022-10-08T05:35:26.503Z,98337.97
2022-10-08T05:40:29.752Z,98350.88
2022-10-08T05:45:31.514Z,98353.47
2022-10-08T05:50:36.666Z,98359.53
2022-10-08T05:55:38.427Z,98380.25
2022-10-08T06:00:40.195Z,98375.81
2022-10-08T06:05:41.950Z,98383.31
2022-10-08T06:10:54.091Z,98386.34
2022-10-08T06:15:56.749Z,98401.66
2022-10-08T06:21:03.813Z,98404.88
2022-10-08T06:26:08.288Z,98408.91
2022-10-08T06:31:10.152Z,98413.16
2022-10-08T06:36:23.611Z,98412.97
2022-10-08T06:41:27.853Z,98420.63
2022-10-08T06:46:31.442Z,98424.03
2022-10-08T06:51:34.326Z,98425.03
2022-10-08T06:56:39.357Z,98432.28
2022-10-08T07:01:41.242Z,98433.28
2022-10-08T07:06:43.144Z,98440.31
2022-10-08T07:11:45.176Z,98443.31
2022-10-08T07:16:47.679Z,98445.13
2022-10-08T07:21:49.659Z,98452.16
2022-10-08T07:26:51.663Z,98436.25
2022-10-08T07:31:53.804Z,98438.31
2022-10-08T07:36:56.199Z,98441.78
2022-10-08T07:41:58.004Z,98445.69
2022-10-08T07:46:59.804Z,98451.16
2022-10-08T07:52:01.664Z,98445.13
2022-10-08T07:57:03.486Z,98447.84
2022-10-08T08:02:05.406Z,98457.38
2022-10-08T08:07:08.867Z,98457.22
2022-10-08T08:12:12.576Z,98451.19
2022-10-08T08:17:14.355Z,98435.31
2022-10-08T08:22:16.193Z,98441.19
2022-10-08T08:27:18.887Z,98444.63
2022-10-08T08:32:26.137Z,98447.66
2022-10-08T08:37:30.373Z,98440.88
2022-10-08T08:42:42.403Z,98446.53
2022-10-08T08:47:58.384Z,98449.94
2022-10-08T08:53:00.432Z,98452.09
2022-10-08T08:58:22.640Z,98444.19
2022-10-08T09:03:41.276Z,98450.84
2022-10-08T09:08:49.972Z,98455.75
2022-10-08T09:14:06.208Z,98461.81
2022-10-08T09:19:09.480Z,98455.59
2022-10-08T09:24:11.594Z,98473.56
2022-10-08T09:29:34.030Z,98471.97
2022-10-08T09:34:36.422Z,98469.13
2022-10-08T09:39:38.450Z,98472.16
2022-10-08T09:44:50.336Z,98468.34
2022-10-08T09:50:20.459Z,98473.59
2022-10-08T09:55:36.567Z,98487.69
2022-10-08T10:00:39.702Z,98483.84
2022-10-08T10:05:41.664Z,98490.31
2022-10-08T10:10:48.694Z,98495.94
2022-10-08T10:16:00.100Z,98504.63
2022-10-08T10:21:07.179Z,98520.72
2022-10-08T10:26:17.923Z,98524.06
2022-10-08T10:31:43.465Z,98525.22
2022-10-08T10:36:53.604Z,98524.38
2022-10-08T10:42:01.567Z,98512.25
2022-10-08T10:47:05.406Z,98516.47
2022-10-08T10:52:24.152Z,98510.50
2022-10-08T10:57:56.289Z,98517.84
2022-10-08T11:03:18.585Z,98516.25
2022-10-08T11:08:33.520Z,98518.44
2022-10-08T11:14:05.477Z,98506.94
2022-10-08T11:19:35.052Z,98518.22
2022-10-08T11:24:51.947Z,98511.81
2022-10-08T11:30:14.136Z,98514.25
2022-10-08T11:35:32.096Z,98514.25
2022-10-08T11:40:43.454Z,98506.41
2022-10-08T11:45:46.479Z,98500.56
2022-10-08T11:50:48.908Z,98507.00
2022-10-08T11:55:57.849Z,98503.97
2022-10-08T12:01:06.601Z,98498.94
2022-10-08T12:06:31.286Z,98503.56
2022-10-08T12:11:35.569Z,98504.75
2022-10-08T12:16:49.502Z,98509.81
2022-10-08T12:21:51.573Z,98503.56
2022-10-08T12:27:18.392Z,98502.94
2022-10-08T12:32:21.158Z,98507.78
2022-10-08T12:37:40.012Z,98514.59
2022-10-08T12:42:42.247Z,98519.19
2022-10-08T12:48:06.323Z,98514.97
2022-10-08T12:53:13.490Z,98506.53
2022-10-08T12:58:20.701Z,98503.56
2022-10-08T13:03:23.023Z,98490.09
2022-10-08T13:08:39.887Z,98497.75
2022-10-08T13:13:43.714Z,98498.97
2022-10-08T13:18:58.549Z,98498.97
2022-10-08T13:24:13.863Z,98501.22
2022-10-08T13:29:30.227Z,98501.25
2022-10-08T13:34:55.038Z,98505.06
2022-10-08T13:40:00.171Z,98511.91
2022-10-08T13:45:04.922Z,98515.72
2022-10-08T13:50:07.319Z,98516.31
2022-10-08T13:55:21.593Z,98516.50
2022-10-08T14:00:24.133Z,98521.34
2022-10-08T14:05:28.772Z,98525.16
2022-10-08T14:10:31.267Z,98523.53
2022-10-08T14:15:33.403Z,98527.78
2022-10-08T14:20:36.715Z,98535.44
2022-10-08T14:25:38.857Z,98540.31
2022-10-08T14:30:40.809Z,98545.16
2022-10-08T14:35:43.031Z,98557.03
2022-10-08T14:40:46.106Z,98558.66
2022-10-08T14:45:48.491Z,98560.44
2022-10-08T14:50:50.578Z,98556.34
2022-10-08T14:56:10.973Z,98561.13
2022-10-08T15:01:14.297Z,98570.72
2022-10-08T15:06:16.207Z,98584.16
2022-10-08T15:11:18.059Z,98586.91
2022-10-08T15:16:19.965Z,98591.69
2022-10-08T15:21:22.006Z,98605.28
2022-10-08T15:26:23.919Z,98625.38
2022-10-08T15:31:26.102Z,98629.22
2022-10-08T15:36:33.157Z,98638.50
2022-10-08T15:41:37.646Z,98644.16
2022-10-08T15:46:39.557Z,98650.84
2022-10-08T15:51:42.401Z,98653.22
2022-10-08T15:56:44.291Z,98656.19
2022-10-08T16:01:46.266Z,98676.66
2022-10-08T16:06:48.122Z,98681.63
2022-10-08T16:11:51.311Z,98673.97
2022-10-08T16:16:53.826Z,98688.84
2022-10-08T16:21:57.324Z,98687.03
2022-10-08T16:26:59.346Z,98699.66
2022-10-08T16:32:01.247Z,98706.84
2022-10-08T16:37:05.013Z,98710.00
2022-10-08T16:42:06.867Z,98709.91
2022-10-08T16:47:09.025Z,98715.06
2022-10-08T16:52:10.996Z,98723.59
2022-10-08T16:57:13.103Z,98715.66
2022-10-08T17:02:15.034Z,98727.66
2022-10-08T17:07:23.147Z,98742.41
2022-10-08T17:12:24.972Z,98753.56
2022-10-08T17:17:26.832Z,98761.09
2022-10-08T17:22:28.682Z,98770.28
2022-10-08T17:27:30.498Z,98774.06
2022-10-08T17:32:32.319Z,98786.81
2022-10-08T17:37:34.252Z,98796.97
2022-10-08T17:42:36.823Z,98799.91
2022-10-08T17:47:39.020Z,98809.88
2022-10-08T17:52:40.851Z,98814.63
2022-10-08T17:57:42.602Z,98819.38
2022-10-08T18:02:44.464Z,98827.91
2022-10-08T18:07:47.510Z,98835.09
2022-10-08T18:12:49.621Z,98836.25
2022-10-08T18:17:53.137Z,98839.66
2022-10-08T18:22:56.342Z,98847.84
2022-10-08T18:27:59.558Z,98852.44
2022-10-08T18:33:01.728Z,98850.31
2022-10-08T18:38:03.472Z,98868.59
2022-10-08T18:43:07.371Z,98875.78
2022-10-08T18:48:09.286Z,98881.00
2022-10-08T18:53:11.167Z,98891.59
2022-10-08T18:58:12.964Z,98900.41
2022-10-08T19:03:14.822Z,98902.38
2022-10-08T19:08:17.328Z,98913.16
2022-10-08T19:13:20.034Z,98907.28
2022-10-08T19:18:21.913Z,98921.31
2022-10-08T19:23:23.715Z,98914.81
2022-10-08T19:28:25.730Z,98940.41
2022-10-08T19:33:27.730Z,98945.47
2022-10-08T19:38:29.547Z,98947.78
2022-10-08T19:43:31.553Z,98953.66
2022-10-08T19:48:33.431Z,98971.59
2022-10-08T19:53:36.362Z,98965.41
2022-10-08T19:58:41.427Z,98975.50
2022-10-08T20:03:46.002Z,98988.06
2022-10-08T20:08:47.907Z,98991.97
2022-10-08T20:13:53.186Z,98999.47
2022-10-08T20:19:00.681Z,99006.13
2022-10-08T20:24:03.336Z,99007.28
2022-10-08T20:29:07.985Z,99008.59
2022-10-08T20:34:13.924Z,99015.09
2022-10-08T20:39:18.821Z,99020.47
2022-10-08T20:44:21.454Z,99019.16
2022-10-08T20:49:23.440Z,99030.84
2022-10-08T20:54:25.278Z,99044.34
2022-10-08T20:59:27.053Z,99043.84
2022-10-08T21:04:28.782Z,99052.00
2022-10-08T21:09:30.701Z,99052.13
2022-10-08T21:14:32.587Z,99051.28
2022-10-08T21:19:34.691Z,99052.22
2022-10-08T21:24:37.476Z,99067.97
2022-10-08T21:29:39.272Z,99069.72
2022-10-08T21:34:41.063Z,99068.72
2022-10-08T21:39:43.131Z,99073.56
2022-10-08T21:44:44.912Z,99076.63
2022-10-08T21:49:47.171Z,99077.91
2022-10-08T21:54:48.911Z,99083.56
2022-10-08T21:59:50.828Z,99084.84
2022-10-08T22:04:52.626Z,99083.53
2022-10-08T22:09:54.443Z,99084.78
2022-10-08T22:14:56.273Z,99094.03
2022-10-08T22:19:58.077Z,99095.81
2022-10-08T22:24:59.826Z,99095.50
2022-10-08T22:30:01.606Z,99108.50
2022-10-08T22:35:03.607Z,99108.00
2022-10-08T22:40:05.927Z,99101.31
2022-10-08T22:45:08.263Z,99111.22
2022-10-08T22:50:10.247Z,99114.94
2022-10-08T22:55:13.985Z,99118.81
2022-10-08T23:00:15.921Z,99118.94
2022-10-08T23:05:17.742Z,99117.84
2022-10-08T23:10:19.767Z,99123.19
2022-10-08T23:15:21.832Z,99128.84
2022-10-08T23:20:23.647Z,99133.53
2022-10-08T23:25:25.475Z,99135.91
2022-10-08T23:30:42.611Z,99144.28
2022-10-08T23:35:46.011Z,99145.81
2022-10-08T23:40:47.842Z,99153.25
2022-10-08T23:45:49.775Z,99153.53
2022-10-08T23:50:53.083Z,99154.81
2022-10-08T23:55:55.438Z,99157.69
